KDUG/DUG METAR and TAF weather

Enter ICAO airport designator
Station Type Date Time Source
KDUG METAR 2020/08/21 07:55 UTC NOAA

KDUG 210755Z 24006KT 7SM BKN150 25/08 A3006 RMK SLP084 T02460079


Station Type Date Time Source
KDUG Decoded METAR 2020/08/21 07:55 UTC NOAA

BISBEE DOUGLAS INTERNATIONAL AIRPORT , AZ, United States (KDUG) 31-28N 109-36W
Aug 21, 2020 - 03:55 AM EDT / 2020.08.21 0755 UTC
Wind: from the WSW (240 degrees) at 7 MPH (6 KT):0
Visibility: 7 mile(s):0
Sky conditions: mostly cloudy
Temperature: 76.3 F (24.6 C)
Dew Point: 46.2 F (7.9 C)
Relative Humidity: 34%
Pressure (altimeter): 30.06 in. Hg (1017 hPa)
ob: KDUG 210755Z 24006KT 7SM BKN150 25/08 A3006 RMK SLP084 T02460079
cycle: 8

Station Type Date Time Source
KDUG TAF 2021/01/20 00:33 UTC NOAA

TAF KDUG 202331Z 2100/2124 12009KT P6SM SCT035 BKN060
TEMPO 2100/2102 6SM -SHRA BR BKN035
FM210300 09009KT 5SM -SHRA BR SCT015 OVC030
FM210700 VRB05KT 6SM SHRA BR FEW009 SCT014 OVC025
FM211500 VRB05KT P6SM SHRA SCT016 OVC030
FM212200 22009KT P6SM VCSH SCT027 BKN035

Example: see airport list